sensor_id;sensor_type;location;lat;lon;timestamp;temperature;humidity
4566;DHT22;2295;51.050;14.608;2023-03-23T00:02:23;9.40;99.90
4566;DHT22;2295;51.050;14.608;2023-03-23T00:04:50;9.30;99.90
4566;DHT22;2295;51.050;14.608;2023-03-23T00:07:19;9.30;99.90
4566;DHT22;2295;51.050;14.608;2023-03-23T00:09:47;9.30;99.90
4566;DHT22;2295;51.050;14.608;2023-03-23T00:12:19;9.30;99.90
4566;DHT22;2295;51.050;14.608;2023-03-23T00:14:48;9.20;99.90
4566;DHT22;2295;51.050;14.608;2023-03-23T00:17:19;9.20;99.90
4566;DHT22;2295;51.050;14.608;2023-03-23T00:19:47;9.40;99.90
4566;DHT22;2295;51.050;14.608;2023-03-23T00:22:15;9.60;99.90
4566;DHT22;2295;51.050;14.608;2023-03-23T00:24:45;9.70;99.90
4566;DHT22;2295;51.050;14.608;2023-03-23T00:27:12;9.80;99.90
4566;DHT22;2295;51.050;14.608;2023-03-23T00:29:40;9.90;99.90
4566;DHT22;2295;51.050;14.608;2023-03-23T00:32:09;10.10;99.90
4566;DHT22;2295;51.050;14.608;2023-03-23T00:34:39;10.20;99.90
4566;DHT22;2295;51.050;14.608;2023-03-23T00:37:09;10.40;99.90
4566;DHT22;2295;51.050;14.608;2023-03-23T00:39:38;10.40;99.90
4566;DHT22;2295;51.050;14.608;2023-03-23T00:42:12;10.60;99.90
4566;DHT22;2295;51.050;14.608;2023-03-23T00:44:40;10.70;99.90
4566;DHT22;2295;51.050;14.608;2023-03-23T00:47:08;10.80;99.90
4566;DHT22;2295;51.050;14.608;2023-03-23T00:49:37;11.00;99.90
4566;DHT22;2295;51.050;14.608;2023-03-23T00:52:05;11.00;99.90
4566;DHT22;2295;51.050;14.608;2023-03-23T00:54:33;11.00;99.90
4566;DHT22;2295;51.050;14.608;2023-03-23T00:57:00;11.20;99.90
4566;DHT22;2295;51.050;14.608;2023-03-23T00:59:28;11.20;99.90
4566;DHT22;2295;51.050;14.608;2023-03-23T01:01:55;11.30;99.90
4566;DHT22;2295;51.050;14.608;2023-03-23T01:04:23;11.30;99.90
4566;DHT22;2295;51.050;14.608;2023-03-23T01:06:52;11.40;99.90
4566;DHT22;2295;51.050;14.608;2023-03-23T01:09:20;11.30;99.90
4566;DHT22;2295;51.050;14.608;2023-03-23T01:11:48;11.20;99.90
4566;DHT22;2295;51.050;14.608;2023-03-23T01:14:18;11.20;99.90
4566;DHT22;2295;51.050;14.608;2023-03-23T01:16:45;11.20;99.90
4566;DHT22;2295;51.050;14.608;2023-03-23T01:19:13;11.30;99.90
4566;DHT22;2295;51.050;14.608;2023-03-23T01:21:42;11.20;99.90
4566;DHT22;2295;51.050;14.608;2023-03-23T01:24:09;11.20;99.90
4566;DHT22;2295;51.050;14.608;2023-03-23T01:26:37;11.10;99.90
4566;DHT22;2295;51.050;14.608;2023-03-23T01:29:04;11.00;99.90
4566;DHT22;2295;51.050;14.608;2023-03-23T01:31:31;11.00;99.90
4566;DHT22;2295;51.050;14.608;2023-03-23T01:33:58;11.00;99.90
4566;DHT22;2295;51.050;14.608;2023-03-23T01:36:28;11.00;99.90
4566;DHT22;2295;51.050;14.608;2023-03-23T01:39:00;11.10;99.90
4566;DHT22;2295;51.050;14.608;2023-03-23T01:41:29;11.00;99.90
4566;DHT22;2295;51.050;14.608;2023-03-23T01:43:59;11.00;99.90
4566;DHT22;2295;51.050;14.608;2023-03-23T01:46:29;11.00;99.90
4566;DHT22;2295;51.050;14.608;2023-03-23T01:49:00;11.10;99.90
4566;DHT22;2295;51.050;14.608;2023-03-23T01:51:34;11.20;99.90
4566;DHT22;2295;51.050;14.608;2023-03-23T01:54:07;11.20;99.90
4566;DHT22;2295;51.050;14.608;2023-03-23T01:56:39;11.20;99.90
4566;DHT22;2295;51.050;14.608;2023-03-23T01:59:11;11.20;99.90
4566;DHT22;2295;51.050;14.608;2023-03-23T02:01:39;11.30;99.90
4566;DHT22;2295;51.050;14.608;2023-03-23T02:04:11;11.30;99.90
4566;DHT22;2295;51.050;14.608;2023-03-23T02:06:39;11.20;99.90
4566;DHT22;2295;51.050;14.608;2023-03-23T02:09:07;11.20;99.90
4566;DHT22;2295;51.050;14.608;2023-03-23T02:11:34;11.10;99.90
4566;DHT22;2295;51.050;14.608;2023-03-23T02:14:02;11.20;99.90
4566;DHT22;2295;51.050;14.608;2023-03-23T02:16:34;11.30;99.90
4566;DHT22;2295;51.050;14.608;2023-03-23T02:19:27;11.30;99.90
4566;DHT22;2295;51.050;14.608;2023-03-23T02:22:12;11.40;99.90
4566;DHT22;2295;51.050;14.608;2023-03-23T02:24:56;11.40;99.90
4566;DHT22;2295;51.050;14.608;2023-03-23T02:30:55;11.20;99.90
4566;DHT22;2295;51.050;14.608;2023-03-23T02:33:36;11.10;99.90
4566;DHT22;2295;51.050;14.608;2023-03-23T02:36:19;11.00;99.90
4566;DHT22;2295;51.050;14.608;2023-03-23T02:38:57;11.00;99.90
4566;DHT22;2295;51.050;14.608;2023-03-23T02:41:29;10.90;99.90
4566;DHT22;2295;51.050;14.608;2023-03-23T02:43:57;10.80;99.90
4566;DHT22;2295;51.050;14.608;2023-03-23T02:46:25;10.80;99.90
4566;DHT22;2295;51.050;14.608;2023-03-23T02:48:56;10.80;99.90
4566;DHT22;2295;51.050;14.608;2023-03-23T02:51:24;10.80;99.90
4566;DHT22;2295;51.050;14.608;2023-03-23T02:53:53;10.80;99.90
4566;DHT22;2295;51.050;14.608;2023-03-23T02:56:24;10.80;99.90
4566;DHT22;2295;51.050;14.608;2023-03-23T02:58:53;10.70;99.90
4566;DHT22;2295;51.050;14.608;2023-03-23T03:04:31;10.60;99.90
4566;DHT22;2295;51.050;14.608;2023-03-23T03:10:10;10.40;99.90
4566;DHT22;2295;51.050;14.608;2023-03-23T03:12:46;10.40;99.90
4566;DHT22;2295;51.050;14.608;2023-03-23T03:15:24;10.30;99.90
4566;DHT22;2295;51.050;14.608;2023-03-23T03:17:58;10.30;99.90
4566;DHT22;2295;51.050;14.608;2023-03-23T03:20:28;10.30;99.90
4566;DHT22;2295;51.050;14.608;2023-03-23T03:22:57;10.30;99.90
4566;DHT22;2295;51.050;14.608;2023-03-23T03:25:25;10.20;99.90
4566;DHT22;2295;51.050;14.608;2023-03-23T03:27:55;10.30;99.90
4566;DHT22;2295;51.050;14.608;2023-03-23T03:30:27;10.30;99.90
4566;DHT22;2295;51.050;14.608;2023-03-23T03:32:56;10.30;99.90
4566;DHT22;2295;51.050;14.608;2023-03-23T03:35:29;10.30;99.90
4566;DHT22;2295;51.050;14.608;2023-03-23T03:37:56;10.20;99.90
4566;DHT22;2295;51.050;14.608;2023-03-23T03:40:26;10.20;99.90
4566;DHT22;2295;51.050;14.608;2023-03-23T03:42:54;10.10;99.90
4566;DHT22;2295;51.050;14.608;2023-03-23T03:45:21;10.10;99.90
4566;DHT22;2295;51.050;14.608;2023-03-23T03:47:48;10.10;99.90
4566;DHT22;2295;51.050;14.608;2023-03-23T03:50:15;10.00;99.90
4566;DHT22;2295;51.050;14.608;2023-03-23T03:52:44;10.00;99.90
4566;DHT22;2295;51.050;14.608;2023-03-23T03:55:11;10.10;99.90
4566;DHT22;2295;51.050;14.608;2023-03-23T03:57:39;10.30;99.90
4566;DHT22;2295;51.050;14.608;2023-03-23T04:00:08;10.60;99.90
4566;DHT22;2295;51.050;14.608;2023-03-23T04:02:45;10.70;99.90
4566;DHT22;2295;51.050;14.608;2023-03-23T04:05:17;10.70;99.90
4566;DHT22;2295;51.050;14.608;2023-03-23T04:07:46;10.70;99.90
4566;DHT22;2295;51.050;14.608;2023-03-23T04:10:15;10.90;99.90
4566;DHT22;2295;51.050;14.608;2023-03-23T04:12:42;11.10;99.90
4566;DHT22;2295;51.050;14.608;2023-03-23T04:15:10;11.30;99.90
4566;DHT22;2295;51.050;14.608;2023-03-23T04:17:37;11.50;99.90
4566;DHT22;2295;51.050;14.608;2023-03-23T04:20:07;11.50;99.90
4566;DHT22;2295;51.050;14.608;2023-03-23T04:22:40;11.60;99.90
4566;DHT22;2295;51.050;14.608;2023-03-23T04:25:12;11.70;99.90
4566;DHT22;2295;51.050;14.608;2023-03-23T04:27:40;11.70;99.90
4566;DHT22;2295;51.050;14.608;2023-03-23T04:30:13;11.70;99.90
4566;DHT22;2295;51.050;14.608;2023-03-23T04:32:40;11.70;99.90
4566;DHT22;2295;51.050;14.608;2023-03-23T04:35:09;11.70;99.90
4566;DHT22;2295;51.050;14.608;2023-03-23T04:37:38;11.60;99.90
4566;DHT22;2295;51.050;14.608;2023-03-23T04:40:07;11.60;99.90
4566;DHT22;2295;51.050;14.608;2023-03-23T04:42:39;11.50;99.90
4566;DHT22;2295;51.050;14.608;2023-03-23T04:45:08;11.50;99.90
4566;DHT22;2295;51.050;14.608;2023-03-23T04:47:36;11.50;99.90
4566;DHT22;2295;51.050;14.608;2023-03-23T04:50:08;11.60;99.90
4566;DHT22;2295;51.050;14.608;2023-03-23T04:52:36;11.50;99.90
4566;DHT22;2295;51.050;14.608;2023-03-23T04:55:07;11.50;99.90
4566;DHT22;2295;51.050;14.608;2023-03-23T04:57:35;11.50;99.90
4566;DHT22;2295;51.050;14.608;2023-03-23T05:00:05;11.40;99.90
4566;DHT22;2295;51.050;14.608;2023-03-23T05:02:35;11.40;99.90
4566;DHT22;2295;51.050;14.608;2023-03-23T05:05:02;11.20;99.90
4566;DHT22;2295;51.050;14.608;2023-03-23T05:07:29;11.20;99.90
4566;DHT22;2295;51.050;14.608;2023-03-23T05:09:57;11.00;99.90
4566;DHT22;2295;51.050;14.608;2023-03-23T05:12:25;10.90;99.90
4566;DHT22;2295;51.050;14.608;2023-03-23T05:14:52;10.90;99.90
4566;DHT22;2295;51.050;14.608;2023-03-23T05:17:21;10.90;99.90
4566;DHT22;2295;51.050;14.608;2023-03-23T05:19:50;10.90;99.90
4566;DHT22;2295;51.050;14.608;2023-03-23T05:22:17;10.90;99.90
4566;DHT22;2295;51.050;14.608;2023-03-23T05:24:46;10.90;99.90
4566;DHT22;2295;51.050;14.608;2023-03-23T05:27:14;11.00;99.90
4566;DHT22;2295;51.050;14.608;2023-03-23T05:29:43;11.00;99.90
4566;DHT22;2295;51.050;14.608;2023-03-23T05:32:11;11.10;99.90
4566;DHT22;2295;51.050;14.608;2023-03-23T05:34:40;11.10;99.90
4566;DHT22;2295;51.050;14.608;2023-03-23T05:37:09;11.20;99.90
4566;DHT22;2295;51.050;14.608;2023-03-23T05:39:38;11.30;99.90
4566;DHT22;2295;51.050;14.608;2023-03-23T05:42:05;11.20;99.90
4566;DHT22;2295;51.050;14.608;2023-03-23T05:44:33;11.30;99.90
4566;DHT22;2295;51.050;14.608;2023-03-23T05:47:00;11.30;99.90
4566;DHT22;2295;51.050;14.608;2023-03-23T05:49:30;11.40;99.90
4566;DHT22;2295;51.050;14.608;2023-03-23T05:51:59;11.40;99.90
4566;DHT22;2295;51.050;14.608;2023-03-23T05:54:27;11.40;99.90
4566;DHT22;2295;51.050;14.608;2023-03-23T05:56:54;11.40;99.90
4566;DHT22;2295;51.050;14.608;2023-03-23T05:59:21;11.40;99.90
4566;DHT22;2295;51.050;14.608;2023-03-23T06:01:48;11.40;99.90
4566;DHT22;2295;51.050;14.608;2023-03-23T06:04:15;11.40;99.90
4566;DHT22;2295;51.050;14.608;2023-03-23T06:06:42;11.40;99.90
4566;DHT22;2295;51.050;14.608;2023-03-23T06:09:12;11.30;99.90
4566;DHT22;2295;51.050;14.608;2023-03-23T06:11:39;11.40;99.90
4566;DHT22;2295;51.050;14.608;2023-03-23T06:14:06;11.30;99.90
4566;DHT22;2295;51.050;14.608;2023-03-23T06:16:34;11.30;99.90
4566;DHT22;2295;51.050;14.608;2023-03-23T06:19:01;11.40;99.90
4566;DHT22;2295;51.050;14.608;2023-03-23T06:21:29;11.50;99.90
4566;DHT22;2295;51.050;14.608;2023-03-23T06:23:57;11.60;99.90
4566;DHT22;2295;51.050;14.608;2023-03-23T06:26:32;11.80;99.90
4566;DHT22;2295;51.050;14.608;2023-03-23T06:28:59;11.90;99.90
4566;DHT22;2295;51.050;14.608;2023-03-23T06:31:27;12.00;99.90
4566;DHT22;2295;51.050;14.608;2023-03-23T06:33:54;12.20;99.90
4566;DHT22;2295;51.050;14.608;2023-03-23T06:36:22;12.30;99.90
4566;DHT22;2295;51.050;14.608;2023-03-23T06:38:49;12.40;99.90
4566;DHT22;2295;51.050;14.608;2023-03-23T06:41:16;12.50;99.90
4566;DHT22;2295;51.050;14.608;2023-03-23T06:43:45;12.60;99.90
4566;DHT22;2295;51.050;14.608;2023-03-23T06:46:12;12.70;99.90
4566;DHT22;2295;51.050;14.608;2023-03-23T06:48:39;12.70;99.90
4566;DHT22;2295;51.050;14.608;2023-03-23T06:51:07;12.70;99.90
4566;DHT22;2295;51.050;14.608;2023-03-23T06:53:34;12.60;99.90
4566;DHT22;2295;51.050;14.608;2023-03-23T06:56:01;12.60;99.90
4566;DHT22;2295;51.050;14.608;2023-03-23T06:58:29;12.50;99.90
4566;DHT22;2295;51.050;14.608;2023-03-23T07:00:57;12.40;99.90
4566;DHT22;2295;51.050;14.608;2023-03-23T07:03:25;12.40;99.90
4566;DHT22;2295;51.050;14.608;2023-03-23T07:05:53;12.40;99.90
4566;DHT22;2295;51.050;14.608;2023-03-23T07:08:20;12.40;99.90
4566;DHT22;2295;51.050;14.608;2023-03-23T07:10:51;12.60;99.90
4566;DHT22;2295;51.050;14.608;2023-03-23T07:13:19;12.70;99.90
4566;DHT22;2295;51.050;14.608;2023-03-23T07:15:46;12.80;99.90
4566;DHT22;2295;51.050;14.608;2023-03-23T07:18:16;13.00;99.90
4566;DHT22;2295;51.050;14.608;2023-03-23T07:20:46;13.20;99.90
4566;DHT22;2295;51.050;14.608;2023-03-23T07:23:13;13.30;99.90
4566;DHT22;2295;51.050;14.608;2023-03-23T07:25:41;13.30;99.90
4566;DHT22;2295;51.050;14.608;2023-03-23T07:28:08;13.20;99.90
4566;DHT22;2295;51.050;14.608;2023-03-23T07:30:38;13.10;99.90
4566;DHT22;2295;51.050;14.608;2023-03-23T07:33:06;13.10;99.90
4566;DHT22;2295;51.050;14.608;2023-03-23T07:35:36;13.10;99.90
4566;DHT22;2295;51.050;14.608;2023-03-23T07:38:05;13.20;99.90
4566;DHT22;2295;51.050;14.608;2023-03-23T07:40:33;13.40;99.90
4566;DHT22;2295;51.050;14.608;2023-03-23T07:43:02;13.70;99.90
4566;DHT22;2295;51.050;14.608;2023-03-23T07:45:30;14.00;99.90
4566;DHT22;2295;51.050;14.608;2023-03-23T07:47:58;14.10;98.90
4566;DHT22;2295;51.050;14.608;2023-03-23T07:50:26;14.20;99.60
4566;DHT22;2295;51.050;14.608;2023-03-23T07:52:56;14.10;98.50
4566;DHT22;2295;51.050;14.608;2023-03-23T07:55:24;14.00;99.30
4566;DHT22;2295;51.050;14.608;2023-03-23T07:57:54;14.00;98.80
4566;DHT22;2295;51.050;14.608;2023-03-23T08:00:22;13.80;99.90
4566;DHT22;2295;51.050;14.608;2023-03-23T08:02:51;13.70;99.70
4566;DHT22;2295;51.050;14.608;2023-03-23T08:05:19;13.70;99.90
4566;DHT22;2295;51.050;14.608;2023-03-23T08:07:46;13.80;99.70
4566;DHT22;2295;51.050;14.608;2023-03-23T08:10:16;14.00;99.90
4566;DHT22;2295;51.050;14.608;2023-03-23T08:12:45;14.80;99.70
4566;DHT22;2295;51.050;14.608;2023-03-23T08:15:13;16.30;91.40
4566;DHT22;2295;51.050;14.608;2023-03-23T08:17:41;17.80;77.70
4566;DHT22;2295;51.050;14.608;2023-03-23T08:20:10;18.70;66.90
4566;DHT22;2295;51.050;14.608;2023-03-23T08:22:40;18.80;64.90
4566;DHT22;2295;51.050;14.608;2023-03-23T08:25:10;18.80;62.70
4566;DHT22;2295;51.050;14.608;2023-03-23T08:27:39;19.00;64.10
4566;DHT22;2295;51.050;14.608;2023-03-23T08:30:10;19.20;61.80
4566;DHT22;2295;51.050;14.608;2023-03-23T08:32:38;19.20;60.40
4566;DHT22;2295;51.050;14.608;2023-03-23T08:35:06;19.00;60.90
4566;DHT22;2295;51.050;14.608;2023-03-23T08:37:35;18.80;61.50
4566;DHT22;2295;51.050;14.608;2023-03-23T08:40:03;18.20;61.90
4566;DHT22;2295;51.050;14.608;2023-03-23T08:42:35;17.80;63.10
4566;DHT22;2295;51.050;14.608;2023-03-23T08:45:06;17.60;65.50
4566;DHT22;2295;51.050;14.608;2023-03-23T08:47:34;17.90;68.20
4566;DHT22;2295;51.050;14.608;2023-03-23T08:50:01;18.40;65.30
4566;DHT22;2295;51.050;14.608;2023-03-23T08:52:28;18.60;60.60
4566;DHT22;2295;51.050;14.608;2023-03-23T08:54:56;19.10;64.30
4566;DHT22;2295;51.050;14.608;2023-03-23T08:57:24;19.70;61.10
4566;DHT22;2295;51.050;14.608;2023-03-23T08:59:51;19.40;59.90
4566;DHT22;2295;51.050;14.608;2023-03-23T09:02:21;18.80;60.70
4566;DHT22;2295;51.050;14.608;2023-03-23T09:04:49;18.10;63.90
4566;DHT22;2295;51.050;14.608;2023-03-23T09:07:16;17.40;64.10
4566;DHT22;2295;51.050;14.608;2023-03-23T09:09:44;16.80;70.50
4566;DHT22;2295;51.050;14.608;2023-03-23T09:12:11;16.30;74.10
4566;DHT22;2295;51.050;14.608;2023-03-23T09:14:45;15.90;75.10
4566;DHT22;2295;51.050;14.608;2023-03-23T09:17:13;15.50;78.90
4566;DHT22;2295;51.050;14.608;2023-03-23T09:19:41;15.20;84.60
4566;DHT22;2295;51.050;14.608;2023-03-23T09:22:08;15.00;91.40
4566;DHT22;2295;51.050;14.608;2023-03-23T09:24:36;14.90;93.90
4566;DHT22;2295;51.050;14.608;2023-03-23T09:27:03;14.90;91.90
4566;DHT22;2295;51.050;14.608;2023-03-23T09:29:30;14.80;93.00
4566;DHT22;2295;51.050;14.608;2023-03-23T09:31:58;14.80;92.80
4566;DHT22;2295;51.050;14.608;2023-03-23T09:34:25;14.80;96.20
4566;DHT22;2295;51.050;14.608;2023-03-23T09:36:56;14.90;94.50
4566;DHT22;2295;51.050;14.608;2023-03-23T09:39:23;14.80;95.50
4566;DHT22;2295;51.050;14.608;2023-03-23T09:42:04;14.70;93.80
4566;DHT22;2295;51.050;14.608;2023-03-23T09:44:41;14.60;94.50
4566;DHT22;2295;51.050;14.608;2023-03-23T09:47:16;14.50;96.10
4566;DHT22;2295;51.050;14.608;2023-03-23T09:49:50;14.50;96.30
4566;DHT22;2295;51.050;14.608;2023-03-23T09:52:20;14.60;96.20
4566;DHT22;2295;51.050;14.608;2023-03-23T09:54:50;14.70;97.10
4566;DHT22;2295;51.050;14.608;2023-03-23T09:57:24;14.80;98.00
4566;DHT22;2295;51.050;14.608;2023-03-23T09:59:58;14.80;96.30
4566;DHT22;2295;51.050;14.608;2023-03-23T10:02:36;14.90;98.70
4566;DHT22;2295;51.050;14.608;2023-03-23T10:05:22;15.10;98.50
4566;DHT22;2295;51.050;14.608;2023-03-23T10:07:51;15.20;99.90
4566;DHT22;2295;51.050;14.608;2023-03-23T10:10:19;15.40;97.10
4566;DHT22;2295;51.050;14.608;2023-03-23T10:12:51;15.60;97.80
4566;DHT22;2295;51.050;14.608;2023-03-23T10:15:23;15.90;94.60
4566;DHT22;2295;51.050;14.608;2023-03-23T10:17:58;16.00;98.10
4566;DHT22;2295;51.050;14.608;2023-03-23T10:20:40;16.20;99.50
4566;DHT22;2295;51.050;14.608;2023-03-23T10:23:33;16.30;94.60
4566;DHT22;2295;51.050;14.608;2023-03-23T10:26:08;16.20;96.10
4566;DHT22;2295;51.050;14.608;2023-03-23T10:28:39;16.20;98.00
4566;DHT22;2295;51.050;14.608;2023-03-23T10:31:11;16.10;98.80
4566;DHT22;2295;51.050;14.608;2023-03-23T10:33:41;16.20;98.30
4566;DHT22;2295;51.050;14.608;2023-03-23T10:36:13;16.30;96.10
4566;DHT22;2295;51.050;14.608;2023-03-23T10:38:44;16.60;96.20
4566;DHT22;2295;51.050;14.608;2023-03-23T10:41:14;16.80;93.20
4566;DHT22;2295;51.050;14.608;2023-03-23T10:43:42;16.70;95.60
4566;DHT22;2295;51.050;14.608;2023-03-23T10:46:28;16.70;93.10
4566;DHT22;2295;51.050;14.608;2023-03-23T10:48:58;16.50;96.90
4566;DHT22;2295;51.050;14.608;2023-03-23T10:51:32;16.40;98.00
4566;DHT22;2295;51.050;14.608;2023-03-23T10:54:04;16.30;99.40
4566;DHT22;2295;51.050;14.608;2023-03-23T10:56:35;16.20;99.90
4566;DHT22;2295;51.050;14.608;2023-03-23T10:59:14;15.90;99.90
4566;DHT22;2295;51.050;14.608;2023-03-23T11:01:45;15.70;99.90
4566;DHT22;2295;51.050;14.608;2023-03-23T11:04:16;15.40;99.90
4566;DHT22;2295;51.050;14.608;2023-03-23T11:06:46;15.20;99.90
4566;DHT22;2295;51.050;14.608;2023-03-23T11:09:18;15.10;99.90
4566;DHT22;2295;51.050;14.608;2023-03-23T11:11:49;15.10;99.90
4566;DHT22;2295;51.050;14.608;2023-03-23T11:14:19;15.00;99.90
4566;DHT22;2295;51.050;14.608;2023-03-23T11:16:50;15.00;99.90
4566;DHT22;2295;51.050;14.608;2023-03-23T11:19:23;15.00;99.90
4566;DHT22;2295;51.050;14.608;2023-03-23T11:21:52;15.00;99.90
4566;DHT22;2295;51.050;14.608;2023-03-23T11:24:24;15.10;99.90
4566;DHT22;2295;51.050;14.608;2023-03-23T11:26:53;15.20;99.90
4566;DHT22;2295;51.050;14.608;2023-03-23T11:29:22;15.20;99.90
4566;DHT22;2295;51.050;14.608;2023-03-23T11:32:01;15.20;99.90
4566;DHT22;2295;51.050;14.608;2023-03-23T11:34:33;15.30;99.90
4566;DHT22;2295;51.050;14.608;2023-03-23T11:37:03;15.50;99.90
4566;DHT22;2295;51.050;14.608;2023-03-23T11:39:35;15.50;99.90
4566;DHT22;2295;51.050;14.608;2023-03-23T11:42:18;15.70;99.90
4566;DHT22;2295;51.050;14.608;2023-03-23T11:44:46;16.10;99.90
4566;DHT22;2295;51.050;14.608;2023-03-23T11:47:20;16.30;99.90
4566;DHT22;2295;51.050;14.608;2023-03-23T11:49:55;16.20;99.90
4566;DHT22;2295;51.050;14.608;2023-03-23T11:52:29;16.00;99.90
4566;DHT22;2295;51.050;14.608;2023-03-23T11:55:08;15.80;99.90
4566;DHT22;2295;51.050;14.608;2023-03-23T11:57:36;15.60;99.90
4566;DHT22;2295;51.050;14.608;2023-03-23T12:00:13;15.50;99.90
4566;DHT22;2295;51.050;14.608;2023-03-23T12:02:47;15.30;99.90
4566;DHT22;2295;51.050;14.608;2023-03-23T12:05:34;15.20;99.90
4566;DHT22;2295;51.050;14.608;2023-03-23T12:11:11;15.20;99.90
4566;DHT22;2295;51.050;14.608;2023-03-23T12:13:51;15.20;99.90
4566;DHT22;2295;51.050;14.608;2023-03-23T12:16:28;15.00;99.90
4566;DHT22;2295;51.050;14.608;2023-03-23T12:19:04;14.80;99.90
4566;DHT22;2295;51.050;14.608;2023-03-23T12:21:41;14.70;99.90
4566;DHT22;2295;51.050;14.608;2023-03-23T12:24:16;14.50;99.90
4566;DHT22;2295;51.050;14.608;2023-03-23T12:26:52;14.20;99.90
4566;DHT22;2295;51.050;14.608;2023-03-23T12:29:38;14.00;99.90
4566;DHT22;2295;51.050;14.608;2023-03-23T12:32:39;13.70;99.90
4566;DHT22;2295;51.050;14.608;2023-03-23T12:35:20;13.40;99.90
4566;DHT22;2295;51.050;14.608;2023-03-23T12:38:01;13.00;99.90
4566;DHT22;2295;51.050;14.608;2023-03-23T12:40:55;12.80;99.90
4566;DHT22;2295;51.050;14.608;2023-03-23T12:43:33;12.60;99.90
4566;DHT22;2295;51.050;14.608;2023-03-23T12:46:19;12.50;99.90
4566;DHT22;2295;51.050;14.608;2023-03-23T12:48:54;12.40;99.90
4566;DHT22;2295;51.050;14.608;2023-03-23T12:51:24;12.60;99.90
4566;DHT22;2295;51.050;14.608;2023-03-23T12:53:58;12.60;99.90
4566;DHT22;2295;51.050;14.608;2023-03-23T12:56:32;12.70;99.90
4566;DHT22;2295;51.050;14.608;2023-03-23T12:59:10;12.80;99.90
4566;DHT22;2295;51.050;14.608;2023-03-23T13:01:42;12.90;99.90
4566;DHT22;2295;51.050;14.608;2023-03-23T13:04:11;12.90;99.90
4566;DHT22;2295;51.050;14.608;2023-03-23T13:06:41;13.00;99.90
4566;DHT22;2295;51.050;14.608;2023-03-23T13:09:13;13.00;99.90
4566;DHT22;2295;51.050;14.608;2023-03-23T13:11:41;13.00;99.90
4566;DHT22;2295;51.050;14.608;2023-03-23T13:14:24;13.00;99.90
4566;DHT22;2295;51.050;14.608;2023-03-23T13:17:10;13.00;99.90
4566;DHT22;2295;51.050;14.608;2023-03-23T13:19:55;13.00;99.90
4566;DHT22;2295;51.050;14.608;2023-03-23T13:22:29;13.00;99.90
4566;DHT22;2295;51.050;14.608;2023-03-23T13:25:01;13.10;99.90
4566;DHT22;2295;51.050;14.608;2023-03-23T13:27:29;13.10;99.90
4566;DHT22;2295;51.050;14.608;2023-03-23T13:29:58;13.20;99.90
4566;DHT22;2295;51.050;14.608;2023-03-23T13:32:35;13.30;99.90
4566;DHT22;2295;51.050;14.608;2023-03-23T13:35:04;13.40;99.90
4566;DHT22;2295;51.050;14.608;2023-03-23T13:37:32;13.60;99.90
4566;DHT22;2295;51.050;14.608;2023-03-23T13:40:16;13.80;99.90
4566;DHT22;2295;51.050;14.608;2023-03-23T13:42:49;13.90;99.90
4566;DHT22;2295;51.050;14.608;2023-03-23T13:45:23;14.10;99.90
4566;DHT22;2295;51.050;14.608;2023-03-23T13:48:03;14.20;99.90
4566;DHT22;2295;51.050;14.608;2023-03-23T13:50:42;14.50;99.90
4566;DHT22;2295;51.050;14.608;2023-03-23T13:53:15;14.80;99.90
4566;DHT22;2295;51.050;14.608;2023-03-23T13:55:50;15.30;99.90
4566;DHT22;2295;51.050;14.608;2023-03-23T13:58:24;15.70;99.90
4566;DHT22;2295;51.050;14.608;2023-03-23T14:01:11;15.80;99.90
4566;DHT22;2295;51.050;14.608;2023-03-23T14:03:48;16.10;99.90
4566;DHT22;2295;51.050;14.608;2023-03-23T14:06:19;16.30;99.90
4566;DHT22;2295;51.050;14.608;2023-03-23T14:08:50;16.60;99.90
4566;DHT22;2295;51.050;14.608;2023-03-23T14:11:20;17.20;99.90
4566;DHT22;2295;51.050;14.608;2023-03-23T14:14:02;17.50;99.90
4566;DHT22;2295;51.050;14.608;2023-03-23T14:16:37;17.60;99.90
4566;DHT22;2295;51.050;14.608;2023-03-23T14:19:14;17.30;99.90
4566;DHT22;2295;51.050;14.608;2023-03-23T14:21:49;16.90;99.90
4566;DHT22;2295;51.050;14.608;2023-03-23T14:24:24;16.60;99.90
4566;DHT22;2295;51.050;14.608;2023-03-23T14:26:53;16.20;99.90
4566;DHT22;2295;51.050;14.608;2023-03-23T14:29:27;15.70;99.90
4566;DHT22;2295;51.050;14.608;2023-03-23T14:31:57;15.40;99.90
4566;DHT22;2295;51.050;14.608;2023-03-23T14:34:29;15.20;99.90
4566;DHT22;2295;51.050;14.608;2023-03-23T14:36:57;15.00;99.90
4566;DHT22;2295;51.050;14.608;2023-03-23T14:39:28;14.90;99.90
4566;DHT22;2295;51.050;14.608;2023-03-23T14:42:02;14.80;99.90
4566;DHT22;2295;51.050;14.608;2023-03-23T14:44:31;14.80;99.90
4566;DHT22;2295;51.050;14.608;2023-03-23T14:47:15;14.70;99.90
4566;DHT22;2295;51.050;14.608;2023-03-23T14:49:43;14.60;99.90
4566;DHT22;2295;51.050;14.608;2023-03-23T14:52:12;14.60;99.90
4566;DHT22;2295;51.050;14.608;2023-03-23T14:54:40;14.50;99.90
4566;DHT22;2295;51.050;14.608;2023-03-23T14:57:12;14.50;99.90
4566;DHT22;2295;51.050;14.608;2023-03-23T14:59:40;14.50;99.90
4566;DHT22;2295;51.050;14.608;2023-03-23T15:02:12;14.50;99.90
4566;DHT22;2295;51.050;14.608;2023-03-23T15:04:43;14.50;99.90
4566;DHT22;2295;51.050;14.608;2023-03-23T15:07:13;14.50;99.90
4566;DHT22;2295;51.050;14.608;2023-03-23T15:09:44;14.40;99.90
4566;DHT22;2295;51.050;14.608;2023-03-23T15:12:20;14.50;99.90
4566;DHT22;2295;51.050;14.608;2023-03-23T15:14:48;14.50;99.90
4566;DHT22;2295;51.050;14.608;2023-03-23T15:17:21;14.50;99.90
4566;DHT22;2295;51.050;14.608;2023-03-23T15:19:50;14.50;99.90
4566;DHT22;2295;51.050;14.608;2023-03-23T15:22:21;14.40;99.90
4566;DHT22;2295;51.050;14.608;2023-03-23T15:24:51;14.40;99.90
4566;DHT22;2295;51.050;14.608;2023-03-23T15:27:25;14.30;99.90
4566;DHT22;2295;51.050;14.608;2023-03-23T15:29:54;14.20;99.90
4566;DHT22;2295;51.050;14.608;2023-03-23T15:32:26;14.10;99.90
4566;DHT22;2295;51.050;14.608;2023-03-23T15:34:54;14.00;99.90
4566;DHT22;2295;51.050;14.608;2023-03-23T15:37:27;13.90;99.90
4566;DHT22;2295;51.050;14.608;2023-03-23T15:39:56;13.90;99.90
4566;DHT22;2295;51.050;14.608;2023-03-23T15:42:27;13.80;99.90
4566;DHT22;2295;51.050;14.608;2023-03-23T15:45:02;13.70;99.90
4566;DHT22;2295;51.050;14.608;2023-03-23T15:47:37;13.70;99.90
4566;DHT22;2295;51.050;14.608;2023-03-23T15:50:11;13.70;99.90
4566;DHT22;2295;51.050;14.608;2023-03-23T15:52:39;13.60;99.90
4566;DHT22;2295;51.050;14.608;2023-03-23T15:55:20;13.60;99.90
4566;DHT22;2295;51.050;14.608;2023-03-23T15:57:48;13.50;99.90
4566;DHT22;2295;51.050;14.608;2023-03-23T16:00:16;13.50;99.90
4566;DHT22;2295;51.050;14.608;2023-03-23T16:02:48;13.40;99.90
4566;DHT22;2295;51.050;14.608;2023-03-23T16:05:18;13.30;99.90
4566;DHT22;2295;51.050;14.608;2023-03-23T16:07:46;13.30;99.90
4566;DHT22;2295;51.050;14.608;2023-03-23T16:10:16;13.20;99.90
4566;DHT22;2295;51.050;14.608;2023-03-23T16:12:45;13.20;99.90
4566;DHT22;2295;51.050;14.608;2023-03-23T16:15:14;13.10;99.90
4566;DHT22;2295;51.050;14.608;2023-03-23T16:17:43;13.10;99.90
4566;DHT22;2295;51.050;14.608;2023-03-23T16:20:15;13.10;99.90
4566;DHT22;2295;51.050;14.608;2023-03-23T16:22:44;13.10;99.90
4566;DHT22;2295;51.050;14.608;2023-03-23T16:25:13;13.00;99.90